Time;durP1;ratioP1;P1;durP2;ratioP2;P2;SDS_P1;SDS_P2;PMS_P1;PMS_P2;Temp;Humidity;BMP_temperature;BMP_pressure;BME280_temperature;BME280_humidity;BME280_pressure;Samples;Min_cycle;Max_cycle;Signal;HPM_P1;HPM_P2
2023/10/22 00:00:45;;;;;;;0.00;0.00;;;;;;;11.57;100.00;99351.22;5126671;28;20362;-43
2023/10/22 00:03:10;;;;;;;0.00;0.00;;;;;;;11.59;100.00;99365.31;5111448;28;20104;-45
2023/10/22 00:05:36;;;;;;;0.00;0.00;;;;;;;11.60;100.00;99354.28;5111235;28;20035;-44
2023/10/22 00:08:01;;;;;;;0.00;0.00;;;;;;;11.60;100.00;99365.06;5113646;28;20047;-42
2023/10/22 00:10:27;;;;;;;0.00;0.00;;;;;;;11.62;100.00;99397.19;5123309;28;20019;-42
2023/10/22 00:12:53;;;;;;;0.00;0.00;;;;;;;11.63;100.00;99375.41;5095758;28;20024;-39
2023/10/22 00:15:18;;;;;;;0.00;0.00;;;;;;;11.65;100.00;99375.19;5111882;28;20030;-40
2023/10/22 00:17:43;;;;;;;0.00;0.00;;;;;;;11.67;100.00;99377.66;5111793;28;20016;-40
2023/10/22 00:20:09;;;;;;;0.00;0.00;;;;;;;11.66;100.00;99387.59;5112286;28;20104;-40
2023/10/22 00:22:35;;;;;;;0.00;0.00;;;;;;;11.64;100.00;99390.53;5112585;28;20028;-40
2023/10/22 00:25:00;;;;;;;0.00;0.00;;;;;;;11.66;100.00;99401.06;5112653;28;20030;-42
2023/10/22 00:27:26;;;;;;;0.00;0.00;;;;;;;11.68;100.00;99398.16;5114627;28;20098;-40
2023/10/22 00:29:51;;;;;;;0.00;0.00;;;;;;;11.68;100.00;99403.56;5112847;28;20020;-41
2023/10/22 00:32:17;;;;;;;0.00;0.00;;;;;;;11.69;100.00;99402.50;5112103;28;20360;-42
2023/10/22 00:34:43;;;;;;;0.00;0.00;;;;;;;11.69;100.00;99411.44;5111590;28;20039;-40
2023/10/22 00:37:09;;;;;;;0.00;0.00;;;;;;;11.72;100.00;99419.06;5113175;28;20031;-39
2023/10/22 00:39:35;;;;;;;0.00;0.00;;;;;;;11.73;100.00;99414.50;5113324;28;20465;-38
2023/10/22 00:42:00;;;;;;;0.00;0.00;;;;;;;11.77;100.00;99429.16;5112495;28;20389;-41
2023/10/22 00:44:25;;;;;;;0.00;0.00;;;;;;;11.76;100.00;99422.13;5121418;28;20019;-40
2023/10/22 00:46:51;;;;;;;0.00;0.00;;;;;;;11.79;100.00;99427.06;5121328;28;20031;-40
2023/10/22 00:49:17;;;;;;;0.00;0.00;;;;;;;11.80;100.00;99418.75;5121432;28;20039;-39
2023/10/22 00:51:44;;;;;;;0.00;0.00;;;;;;;11.81;100.00;99430.34;5098683;28;20023;-39
2023/10/22 00:54:10;;;;;;;0.00;0.00;;;;;;;11.83;100.00;99442.56;5115560;28;20024;-40
2023/10/22 00:56:35;;;;;;;0.00;0.00;;;;;;;11.85;100.00;99447.75;5097213;28;20064;-38
2023/10/22 00:59:01;;;;;;;0.00;0.00;;;;;;;11.87;100.00;99453.75;5096922;28;20028;-39
2023/10/22 01:01:26;;;;;;;0.00;0.00;;;;;;;11.92;100.00;99453.91;5096323;28;20023;-39
2023/10/22 01:03:52;;;;;;;0.00;0.00;;;;;;;11.93;100.00;99462.81;5096406;28;20081;-38
2023/10/22 01:06:17;;;;;;;0.00;0.00;;;;;;;11.93;100.00;99466.34;5114101;28;20028;-39
2023/10/22 01:08:44;;;;;;;0.00;0.00;;;;;;;11.94;100.00;99473.38;5114030;28;20474;-41
2023/10/22 01:11:11;;;;;;;0.00;0.00;;;;;;;11.94;100.00;99473.38;5112951;28;20055;-39
2023/10/22 01:13:38;;;;;;;0.00;0.00;;;;;;;11.97;100.00;99483.72;5112717;28;20032;-39
2023/10/22 01:16:04;;;;;;;0.00;0.00;;;;;;;11.98;100.00;99477.28;5095440;28;20024;-39
2023/10/22 01:18:29;;;;;;;0.00;0.00;;;;;;;12.00;100.00;99483.25;5113772;28;20385;-39
2023/10/22 01:20:55;;;;;;;0.00;0.00;;;;;;;12.02;100.00;99489.25;5113110;28;20031;-41
2023/10/22 01:23:21;;;;;;;0.00;0.00;;;;;;;12.03;100.00;99490.91;5128673;27;20088;-40
2023/10/22 01:25:46;;;;;;;0.00;0.00;;;;;;;12.05;100.00;99502.28;5111823;28;20767;-40
2023/10/22 01:28:12;;;;;;;0.00;0.00;;;;;;;12.10;100.00;99498.91;5112003;28;20034;-41
2023/10/22 01:30:37;;;;;;;0.00;0.00;;;;;;;12.12;100.00;99501.41;5098094;28;20035;-39
2023/10/22 01:33:02;;;;;;;0.00;0.00;;;;;;;12.14;100.00;99510.06;5113304;28;20051;-37
2023/10/22 01:35:28;;;;;;;0.00;0.00;;;;;;;12.16;100.00;99529.56;5112783;28;20524;-40
2023/10/22 01:37:53;;;;;;;0.00;0.00;;;;;;;12.16;100.00;99526.84;5093225;28;20381;-40
2023/10/22 01:40:19;;;;;;;0.00;0.00;;;;;;;12.20;100.00;99536.16;5111851;28;20255;-39
2023/10/22 01:42:45;;;;;;;0.00;0.00;;;;;;;12.21;100.00;99543.19;5112991;28;20024;-39
2023/10/22 01:45:11;;;;;;;0.00;0.00;;;;;;;12.26;100.00;99551.44;5113158;28;20027;-44
2023/10/22 01:47:36;;;;;;;0.00;0.00;;;;;;;12.25;100.00;99561.41;5112529;28;20499;-45
2023/10/22 01:50:04;;;;;;;0.00;0.00;;;;;;;12.18;100.00;99576.00;5111568;28;20478;-43
2023/10/22 01:52:29;;;;;;;;;;;;;;;12.12;100.00;99582.31;5104007;28;20030;-41
2023/10/22 01:54:55;;;;;;;0.00;0.00;;;;;;;12.07;100.00;99591.88;5093823;28;20273;-42
2023/10/22 01:57:20;;;;;;;0.00;0.00;;;;;;;12.00;100.00;99601.91;5111286;28;20592;-41
2023/10/22 01:59:46;;;;;;;0.00;0.00;;;;;;;11.96;100.00;99627.66;5112093;28;20034;-41
2023/10/22 02:02:11;;;;;;;0.00;0.00;;;;;;;11.93;100.00;99627.28;5111000;28;20036;-42
2023/10/22 02:04:36;;;;;;;0.00;0.00;;;;;;;11.86;100.00;99636.25;5111610;28;20027;-42
2023/10/22 02:07:02;;;;;;;0.00;0.00;;;;;;;11.85;100.00;99648.06;5112150;28;20106;-42
2023/10/22 02:09:27;;;;;;;0.00;0.00;;;;;;;11.82;100.00;99647.66;5112633;28;20469;-43
2023/10/22 02:11:53;;;;;;;0.00;0.00;;;;;;;11.82;100.00;99658.44;5109577;28;20423;-43
2023/10/22 02:14:19;;;;;;;0.00;0.00;;;;;;;11.76;100.00;99656.63;5092570;28;20463;-43
2023/10/22 02:16:44;;;;;;;0.00;0.00;;;;;;;11.72;100.00;99661.63;5111406;28;20030;-43
2023/10/22 02:19:09;;;;;;;0.00;0.00;;;;;;;11.76;100.00;99675.50;5113186;28;20032;-43
2023/10/22 02:21:35;;;;;;;0.00;0.00;;;;;;;11.74;100.00;99682.97;5111570;28;20023;-42
2023/10/22 02:24:00;;;;;;;0.00;0.00;;;;;;;11.72;100.00;99690.47;5114156;27;20481;-41
2023/10/22 02:26:26;;;;;;;0.00;0.00;;;;;;;11.70;100.00;99695.25;5116872;28;20045;-41
2023/10/22 02:28:51;;;;;;;0.00;0.00;;;;;;;11.69;100.00;99707.91;5115396;28;20027;-40
2023/10/22 02:31:17;;;;;;;0.00;0.00;;;;;;;11.63;100.00;99706.03;5112825;28;20098;-39
2023/10/22 02:33:42;;;;;;;0.00;0.00;;;;;;;11.59;100.00;99734.50;5112300;28;20019;-39
2023/10/22 02:36:07;;;;;;;0.00;0.00;;;;;;;11.49;100.00;99736.81;5112119;28;20072;-40
2023/10/22 02:38:36;;;;;;;0.00;0.00;;;;;;;11.43;100.00;99751.97;5113022;28;20051;-40
2023/10/22 02:41:02;;;;;;;0.00;0.00;;;;;;;11.36;100.00;99759.25;5112995;28;20028;-41
2023/10/22 02:43:28;;;;;;;0.00;0.00;;;;;;;11.32;100.00;99760.72;5112799;28;20027;-39
2023/10/22 02:45:54;;;;;;;0.00;0.00;;;;;;;11.26;100.00;99764.25;5112370;28;20031;-40
2023/10/22 02:48:20;;;;;;;0.00;0.00;;;;;;;11.21;100.00;99781.06;5112461;28;20031;-40
2023/10/22 02:50:45;;;;;;;0.00;0.00;;;;;;;11.15;100.00;99780.03;5129149;27;20026;-40
2023/10/22 02:53:11;;;;;;;0.00;0.00;;;;;;;11.17;100.00;99785.22;5112293;28;20046;-41
2023/10/22 02:55:36;;;;;;;0.00;0.00;;;;;;;11.13;100.00;99787.50;5112882;28;20404;-37
2023/10/22 02:58:02;;;;;;;0.00;0.00;;;;;;;11.08;100.00;99787.28;5111976;28;20073;-40
2023/10/22 03:00:27;;;;;;;0.00;0.00;;;;;;;11.08;100.00;99806.16;5112337;28;20023;-39
2023/10/22 03:02:53;;;;;;;0.00;0.00;;;;;;;11.10;100.00;99806.78;5112007;28;20401;-41
2023/10/22 03:05:18;;;;;;;0.00;0.00;;;;;;;11.07;100.00;99814.44;5111346;28;20031;-39
2023/10/22 03:07:44;;;;;;;0.00;0.00;;;;;;;11.10;100.00;99838.25;5112179;28;20104;-39
2023/10/22 03:10:12;;;;;;;0.00;0.00;;;;;;;11.05;100.00;99830.81;5112192;28;20046;-40
2023/10/22 03:12:37;;;;;;;0.00;0.00;;;;;;;10.99;100.00;99839.72;5112090;28;20031;-40
2023/10/22 03:15:03;;;;;;;0.00;0.00;;;;;;;10.97;100.00;99839.09;5112156;28;20042;-43
2023/10/22 03:17:29;;;;;;;0.00;0.00;;;;;;;10.93;100.00;99851.34;5111955;28;20062;-41
2023/10/22 03:19:54;;;;;;;0.00;0.00;;;;;;;10.90;100.00;99849.91;5112179;28;20103;-39
2023/10/22 03:22:20;;;;;;;0.00;0.00;;;;;;;10.86;100.00;99853.19;5111849;28;20373;-40
2023/10/22 03:24:51;;;;;;;0.00;0.00;;;;;;;10.79;100.00;99847.81;5111894;28;20023;-40
2023/10/22 03:27:17;;;;;;;0.00;0.00;;;;;;;10.81;100.00;99855.69;5111119;28;20099;-40
2023/10/22 03:29:43;;;;;;;0.00;0.00;;;;;;;10.75;100.00;99863.56;5111978;28;20428;-39
2023/10/22 03:32:09;;;;;;;0.00;0.00;;;;;;;10.79;100.00;99868.53;5111343;28;20031;-41
2023/10/22 03:34:35;;;;;;;0.00;0.00;;;;;;;10.76;100.00;99870.59;5111463;28;20034;-40
2023/10/22 03:37:04;;;;;;;0.00;0.00;;;;;;;10.74;100.00;99877.22;5109899;28;20393;-41
2023/10/22 03:39:30;;;;;;;0.00;0.00;;;;;;;10.80;100.00;99883.66;5111130;28;20127;-42
2023/10/22 03:41:55;;;;;;;0.00;0.00;;;;;;;10.80;100.00;99880.97;5112861;28;20023;-40
2023/10/22 03:44:21;;;;;;;0.00;0.00;;;;;;;10.83;100.00;99891.31;5112166;28;20131;-41
2023/10/22 03:46:48;;;;;;;0.00;0.00;;;;;;;10.85;100.00;99894.59;5111414;28;20542;-41
2023/10/22 03:49:13;;;;;;;0.00;0.00;;;;;;;10.87;100.00;99908.69;5110466;28;20038;-40
2023/10/22 03:51:39;;;;;;;0.00;0.00;;;;;;;10.89;100.00;99904.75;5108357;28;20036;-39
2023/10/22 03:54:04;;;;;;;0.00;0.00;;;;;;;10.89;100.00;99915.53;5114421;27;20530;-40
2023/10/22 03:56:30;;;;;;;0.00;0.00;;;;;;;10.90;100.00;99913.66;5113813;28;20027;-41
2023/10/22 03:58:55;;;;;;;0.00;0.00;;;;;;;10.95;100.00;99917.41;5112625;28;20434;-40
2023/10/22 04:01:21;;;;;;;0.00;0.00;;;;;;;10.95;100.00;99932.69;5112282;28;20039;-40
2023/10/22 04:03:46;;;;;;;0.00;0.00;;;;;;;10.94;100.00;99928.38;5113932;28;20087;-40
2023/10/22 04:06:12;;;;;;;0.00;0.00;;;;;;;11.01;100.00;99941.84;5114084;28;20077;-42
2023/10/22 04:08:37;;;;;;;0.00;0.00;;;;;;;10.99;100.00;99932.09;5114096;28;20027;-40
2023/10/22 04:11:04;;;;;;;0.00;0.00;;;;;;;11.06;100.00;99934.81;5111147;28;20056;-39
2023/10/22 04:13:30;;;;;;;0.00;0.00;;;;;;;11.09;100.00;99939.75;5110942;28;20038;-40
2023/10/22 04:15:55;;;;;;;0.00;0.00;;;;;;;11.11;100.00;99956.56;5110183;28;20035;-41
2023/10/22 04:18:20;;;;;;;0.00;0.00;;;;;;;11.13;100.00;99954.44;5113692;28;20071;-41
2023/10/22 04:20:46;;;;;;;0.00;0.00;;;;;;;11.17;100.00;99950.31;5114188;28;20142;-39
2023/10/22 04:23:11;;;;;;;0.00;0.00;;;;;;;11.18;100.00;99948.44;5113403;28;20022;-42
2023/10/22 04:25:39;;;;;;;0.00;0.00;;;;;;;11.18;100.00;99949.28;5113262;28;20363;-40
2023/10/22 04:28:06;;;;;;;0.00;0.00;;;;;;;11.17;100.00;99952.19;5094815;28;20122;-40
2023/10/22 04:30:33;;;;;;;0.00;0.00;;;;;;;11.17;100.00;99965.66;5113404;28;20035;-41
2023/10/22 04:32:58;;;;;;;0.00;0.00;;;;;;;11.18;100.00;99970.81;5112814;28;20443;-41
2023/10/22 04:35:23;;;;;;;0.00;0.00;;;;;;;11.18;100.00;99970.81;5094717;28;20073;-40
2023/10/22 04:37:53;;;;;;;0.00;0.00;;;;;;;11.16;100.00;99975.63;5113256;28;20039;-41
2023/10/22 04:40:18;;;;;;;0.00;0.00;;;;;;;11.18;100.00;99981.59;5112886;28;20519;-40
2023/10/22 04:42:44;;;;;;;0.00;0.00;;;;;;;11.20;100.00;99984.91;5113534;28;20105;-40
2023/10/22 04:45:10;;;;;;;0.00;0.00;;;;;;;11.18;100.00;99986.97;5112271;28;20059;-40
2023/10/22 04:47:35;;;;;;;0.00;0.00;;;;;;;11.19;100.00;99985.97;5112733;28;20026;-41
2023/10/22 04:50:00;;;;;;;0.00;0.00;;;;;;;11.20;100.00;99984.91;5094104;28;20032;-40
2023/10/22 04:52:32;;;;;;;0.00;0.00;;;;;;;11.21;100.00;99985.75;5113228;28;20153;-42
2023/10/22 04:55:01;;;;;;;0.00;0.00;;;;;;;11.24;100.00;99990.72;5120668;27;21511;-40
2023/10/22 04:57:27;;;;;;;0.00;0.00;;;;;;;11.27;100.00;99990.31;5109275;28;20031;-41
2023/10/22 04:59:53;;;;;;;0.00;0.00;;;;;;;11.27;100.00;99984.94;5112347;28;20024;-42
2023/10/22 05:02:18;;;;;;;0.00;0.00;;;;;;;11.28;100.00;99996.53;5112629;28;20083;-42
2023/10/22 05:04:47;;;;;;;0.00;0.00;;;;;;;11.27;100.00;100000.25;5112211;28;20047;-42
2023/10/22 05:07:13;;;;;;;0.00;0.00;;;;;;;11.27;100.00;99997.53;5111610;28;20024;-41
2023/10/22 05:09:39;;;;;;;0.00;0.00;;;;;;;11.27;100.00;100000.25;5112129;28;20465;-42
2023/10/22 05:12:05;;;;;;;0.00;0.00;;;;;;;11.27;100.00;100005.63;5112528;28;20053;-40
2023/10/22 05:14:30;;;;;;;0.00;0.00;;;;;;;11.25;100.00;100007.72;5112383;28;20458;-39
2023/10/22 05:16:56;;;;;;;0.00;0.00;;;;;;;11.24;100.00;100017.63;5110887;28;20080;-39
2023/10/22 05:19:21;;;;;;;0.00;0.00;;;;;;;11.20;100.00;100019.94;5111556;28;20034;-41
2023/10/22 05:21:46;;;;;;;0.00;0.00;;;;;;;11.13;100.00;100027.16;5097942;28;20373;-42
2023/10/22 05:24:11;;;;;;;0.00;0.00;;;;;;;11.12;100.00;100028.22;5109482;28;20024;-41
2023/10/22 05:26:39;;;;;;;0.00;0.00;;;;;;;11.11;100.00;100031.94;5112155;28;20023;-40
2023/10/22 05:29:05;;;;;;;0.00;0.00;;;;;;;11.10;100.00;100049.13;5103413;28;20487;-41
2023/10/22 05:31:30;;;;;;;0.00;0.00;;;;;;;11.07;100.00;100044.16;5100962;27;20104;-42
2023/10/22 05:33:56;;;;;;;0.00;0.00;;;;;;;11.05;100.00;100051.59;5109278;28;20058;-42
2023/10/22 05:36:21;;;;;;;0.00;0.00;;;;;;;11.04;100.00;100060.72;5092193;28;20059;-43
2023/10/22 05:38:47;;;;;;;0.00;0.00;;;;;;;11.05;100.00;100061.56;5113468;28;20075;-42
2023/10/22 05:41:21;;;;;;;0.00;0.00;;;;;;;11.07;100.00;100076.47;5113053;28;20703;-40
2023/10/22 05:43:47;;;;;;;0.00;0.00;;;;;;;11.07;100.00;100071.09;5108755;28;20027;-41
2023/10/22 05:46:12;;;;;;;0.00;0.00;;;;;;;11.06;100.00;100069.44;5104683;28;20054;-40
2023/10/22 05:48:37;;;;;;;0.00;0.00;;;;;;;11.09;100.00;100077.09;5103445;28;20051;-41
2023/10/22 05:51:03;;;;;;;0.00;0.00;;;;;;;11.14;100.00;100088.09;5110168;28;20080;-41
2023/10/22 05:53:28;;;;;;;0.00;0.00;;;;;;;11.16;100.00;100085.19;5103060;28;20024;-41
2023/10/22 05:55:59;;;;;;;0.00;0.00;;;;;;;11.18;100.00;100094.72;5109062;28;20023;-41
2023/10/22 05:58:25;;;;;;;0.00;0.00;;;;;;;11.21;100.00;100099.69;5110685;28;20135;-40
2023/10/22 06:00:51;;;;;;;0.00;0.00;;;;;;;11.27;100.00;100102.59;5114612;28;20422;-40
2023/10/22 06:03:16;;;;;;;0.00;0.00;;;;;;;11.23;100.00;100104.06;5113030;28;20050;-41
2023/10/22 06:05:42;;;;;;;0.00;0.00;;;;;;;11.18;100.00;100105.47;5112550;28;20023;-42
2023/10/22 06:08:07;;;;;;;0.00;0.00;;;;;;;11.14;100.00;100117.72;5109874;28;20067;-41
2023/10/22 06:10:42;;;;;;;0.00;0.00;;;;;;;11.09;100.00;100117.50;5104943;28;20029;-41
2023/10/22 06:13:07;;;;;;;0.00;0.00;;;;;;;11.05;100.00;100115.41;5112420;27;20038;-41
2023/10/22 06:15:36;;;;;;;0.00;0.00;;;;;;;10.97;100.00;100121.78;5102434;28;20027;-42
2023/10/22 06:18:04;;;;;;;0.00;0.00;;;;;;;10.92;100.00;100127.78;5103930;27;20055;-42
2023/10/22 06:20:31;;;;;;;0.00;0.00;;;;;;;10.90;100.00;100140.63;5109028;28;20503;-41
2023/10/22 06:23:00;;;;;;;0.00;0.00;;;;;;;10.86;100.00;100139.38;5106616;28;20143;-42
2023/10/22 06:25:26;;;;;;;0.00;0.00;;;;;;;10.87;100.00;100140.19;5092235;28;20532;-41
2023/10/22 06:27:55;;;;;;;0.00;0.00;;;;;;;10.87;100.00;100140.19;5108400;28;20114;-41
2023/10/22 06:30:25;;;;;;;0.00;0.00;;;;;;;10.85;100.00;100153.00;5107431;28;20038;-40
2023/10/22 06:32:51;;;;;;;0.00;0.00;;;;;;;10.83;100.00;100152.41;5113747;28;20019;-42
2023/10/22 06:35:16;;;;;;;0.00;0.00;;;;;;;10.80;100.00;100155.50;5112839;28;20096;-40
2023/10/22 06:37:41;;;;;;;0.00;0.00;;;;;;;10.77;100.00;100168.31;5110775;28;20094;-42
2023/10/22 06:40:08;;;;;;;0.00;0.00;;;;;;;10.72;100.00;100168.09;5108343;28;20515;-42
2023/10/22 06:42:33;;;;;;;0.00;0.00;;;;;;;10.70;100.00;100180.91;5120630;27;20084;-40
2023/10/22 06:44:59;;;;;;;0.00;0.00;;;;;;;10.71;100.00;100195.19;5101166;28;20529;-40
2023/10/22 06:47:25;;;;;;;0.00;0.00;;;;;;;10.69;100.00;100197.25;5099155;28;20061;-43
2023/10/22 06:49:51;;;;;;;0.00;0.00;;;;;;;10.71;100.00;100201.41;5102491;28;20416;-42
2023/10/22 06:52:16;;;;;;;0.00;0.00;;;;;;;10.74;100.00;100198.34;5110183;28;20035;-40
2023/10/22 06:54:41;;;;;;;0.00;0.00;;;;;;;10.80;100.00;100206.66;5110255;28;20038;-41
2023/10/22 06:57:07;;;;;;;0.00;0.00;;;;;;;10.85;100.00;100206.84;5110408;28;20469;-42
2023/10/22 06:59:32;;;;;;;0.00;0.00;;;;;;;10.87;100.00;100215.56;5108393;28;20504;-39
2023/10/22 07:01:57;;;;;;;0.00;0.00;;;;;;;10.89;100.00;100213.50;5106657;28;20545;-40
2023/10/22 07:04:23;;;;;;;0.00;0.00;;;;;;;10.91;100.00;100222.22;5105070;28;20458;-39
2023/10/22 07:06:48;;;;;;;0.00;0.00;;;;;;;10.91;100.00;100233.00;5102947;28;20047;-41
2023/10/22 07:09:13;;;;;;;0.00;0.00;;;;;;;10.87;100.00;100235.22;5112152;28;20032;-41
2023/10/22 07:11:39;;;;;;;0.00;0.00;;;;;;;10.92;100.00;100234.66;5114442;28;20378;-42
2023/10/22 07:14:04;;;;;;;0.00;0.00;;;;;;;11.01;100.00;100243.41;5115363;28;20038;-42
2023/10/22 07:16:32;;;;;;;0.00;0.00;;;;;;;11.15;100.00;100254.03;5114702;28;20026;-40
2023/10/22 07:18:57;;;;;;;0.00;0.00;;;;;;;11.35;100.00;100261.38;5109747;28;20027;-41
2023/10/22 07:21:23;;;;;;;0.00;0.00;;;;;;;11.44;100.00;100257.47;5110850;28;20028;-41
2023/10/22 07:23:48;;;;;;;0.00;0.00;;;;;;;11.47;100.00;100259.75;5109039;28;20023;-41
2023/10/22 07:26:13;;;;;;;0.00;0.00;;;;;;;11.51;100.00;100266.41;5114857;28;20688;-42
2023/10/22 07:28:41;;;;;;;0.00;0.00;;;;;;;11.59;100.00;100274.31;5111197;28;20015;-40
2023/10/22 07:31:07;;;;;;;0.00;0.00;;;;;;;11.67;100.00;100280.56;5111134;28;20103;-42
2023/10/22 07:33:32;;;;;;;0.00;0.00;;;;;;;11.71;100.00;100287.19;5104185;28;20027;-40
2023/10/22 07:36:03;;;;;;;0.00;0.00;;;;;;;11.67;100.00;100291.34;5111116;28;20041;-41
2023/10/22 07:38:31;;;;;;;0.00;0.00;;;;;;;11.56;100.00;100301.66;5108690;28;20030;-40
2023/10/22 07:40:57;;;;;;;0.00;0.00;;;;;;;11.54;100.00;100302.91;5111882;28;20085;-39
2023/10/22 07:43:24;;;;;;;0.00;0.00;;;;;;;11.56;100.00;100304.38;5110183;28;20532;-39
2023/10/22 07:45:49;;;;;;;0.00;0.00;;;;;;;11.57;100.00;100316.78;5109952;28;20041;-41
2023/10/22 07:48:14;;;;;;;0.00;0.00;;;;;;;11.55;100.00;100326.94;5107715;28;20118;-41
2023/10/22 07:50:40;;;;;;;0.00;0.00;;;;;;;11.54;100.00;100324.47;5110768;28;20031;-41
2023/10/22 07:53:05;;;;;;;0.00;0.00;;;;;;;11.51;100.00;100335.66;5106648;28;20493;-41
2023/10/22 07:55:30;;;;;;;0.00;0.00;;;;;;;11.43;100.00;100339.34;5110832;28;20028;-43
2023/10/22 07:57:56;;;;;;;0.00;0.00;;;;;;;11.39;100.00;100341.59;5111673;28;20149;-41
2023/10/22 08:00:21;;;;;;;0.00;0.00;;;;;;;11.41;100.00;100352.19;5092051;28;20410;-40
2023/10/22 08:02:46;;;;;;;0.00;0.00;;;;;;;11.39;100.00;100354.22;5111453;28;20165;-40
2023/10/22 08:05:12;;;;;;;0.00;0.00;;;;;;;11.35;100.00;100358.38;5111818;28;20060;-42
2023/10/22 08:07:37;;;;;;;0.00;0.00;;;;;;;11.37;100.00;100367.06;5110402;28;20031;-40
2023/10/22 08:10:03;;;;;;;0.00;0.00;;;;;;;11.33;100.00;100365.81;5111064;28;20389;-42
2023/10/22 08:12:28;;;;;;;0.00;0.00;;;;;;;11.37;100.00;100369.75;5112381;28;20031;-41
2023/10/22 08:14:53;;;;;;;0.00;0.00;;;;;;;11.37;100.00;100372.44;5112789;28;20076;-39
2023/10/22 08:17:19;;;;;;;0.00;0.00;;;;;;;11.41;100.00;100387.22;5112041;28;20102;-40
2023/10/22 08:19:44;;;;;;;0.00;0.00;;;;;;;11.34;100.00;100383.63;5074416;28;20336;-40
2023/10/22 08:22:09;;;;;;;0.00;0.00;;;;;;;11.37;100.00;100385.91;5111269;28;20031;-40
2023/10/22 08:24:35;;;;;;;0.00;0.00;;;;;;;11.58;100.00;100383.13;5109409;28;20024;-41
2023/10/22 08:27:00;;;;;;;0.00;0.00;;;;;;;12.06;100.00;100383.16;5111431;28;20522;-41
2023/10/22 08:29:26;;;;;;;0.00;0.00;;;;;;;12.65;100.00;100388.88;5107776;28;20028;-40
2023/10/22 08:31:51;;;;;;;0.00;0.00;;;;;;;13.03;100.00;100372.03;5110197;28;20110;-41
2023/10/22 08:34:16;;;;;;;0.00;0.00;;;;;;;13.27;100.00;100373.28;5109164;28;20112;-40
2023/10/22 08:36:42;;;;;;;0.00;0.00;;;;;;;13.12;100.00;100365.38;5111414;28;20039;-42
2023/10/22 08:39:09;;;;;;;0.00;0.00;;;;;;;12.80;100.00;100367.09;5104760;28;20066;-41
2023/10/22 08:41:38;;;;;;;0.00;0.00;;;;;;;12.61;100.00;100369.56;5084012;28;20143;-39
2023/10/22 08:44:05;;;;;;;0.00;0.00;;;;;;;12.74;100.00;100379.53;5123143;28;20055;-40
2023/10/22 08:46:33;;;;;;;0.00;0.00;;;;;;;13.34;100.00;100382.22;5107247;28;20027;-40
2023/10/22 08:48:59;;;;;;;0.00;0.00;;;;;;;13.35;100.00;100379.31;5106544;28;20082;-42
2023/10/22 08:51:24;;;;;;;0.00;0.00;;;;;;;12.87;100.00;100378.69;5108044;28;20055;-42
2023/10/22 08:53:50;;;;;;;0.00;0.00;;;;;;;12.55;100.00;100391.16;5090414;28;20039;-39
2023/10/22 08:56:16;;;;;;;0.00;0.00;;;;;;;12.38;100.00;100401.50;5109621;28;20032;-43
2023/10/22 08:58:41;;;;;;;0.00;0.00;;;;;;;12.23;100.00;100412.47;5115803;28;20019;-41
2023/10/22 09:01:07;;;;;;;0.00;0.00;;;;;;;12.10;100.00;100418.66;5116180;27;20062;-41
2023/10/22 09:03:32;;;;;;;0.00;0.00;;;;;;;12.00;100.00;100427.13;5137550;27;20062;-42
2023/10/22 09:05:58;;;;;;;0.00;0.00;;;;;;;12.05;100.00;100435.44;5127621;27;20027;-41
2023/10/22 09:08:40;;;;;;;0.00;0.00;;;;;;;11.97;100.00;100424.00;5136273;27;20027;-41
2023/10/22 09:11:16;;;;;;;0.00;0.00;;;;;;;12.07;100.00;100437.94;5135784;27;20449;-42
2023/10/22 09:13:42;;;;;;;0.00;0.00;;;;;;;12.09;100.00;100441.28;5125107;27;20028;-40
2023/10/22 09:16:08;;;;;;;0.00;0.00;;;;;;;12.16;100.00;100438.59;5114545;28;20448;-41
2023/10/22 09:18:41;;;;;;;0.00;0.00;;;;;;;12.06;100.00;100447.91;5121003;27;20088;-39
2023/10/22 09:21:07;;;;;;;0.00;0.00;;;;;;;11.96;100.00;100442.06;5135183;27;20254;-41
2023/10/22 09:23:32;;;;;;;0.00;0.00;;;;;;;11.96;100.00;100458.22;5129081;27;20529;-42
2023/10/22 09:25:58;;;;;;;0.00;0.00;;;;;;;11.97;100.00;100454.50;5114695;28;20405;-40
2023/10/22 09:28:25;;;;;;;0.00;0.00;;;;;;;11.94;100.00;100454.91;5095236;28;20164;-39
2023/10/22 09:30:58;;;;;;;0.00;0.00;;;;;;;11.94;100.00;100465.69;5114747;28;20028;-40
2023/10/22 09:33:32;;;;;;;0.00;0.00;;;;;;;11.85;100.00;100466.88;5113851;28;20531;-41
2023/10/22 09:36:04;;;;;;;0.00;0.00;;;;;;;11.92;100.00;100462.34;5093784;28;20070;-38
2023/10/22 09:38:47;;;;;;;0.00;0.00;;;;;;;11.95;100.00;100480.00;5094522;28;20112;-40
2023/10/22 09:41:32;;;;;;;0.00;0.00;;;;;;;11.95;100.00;100478.13;5103386;28;20035;-42
2023/10/22 09:44:02;;;;;;;0.00;0.00;;;;;;;12.13;100.00;100479.47;5093073;28;20397;-40
2023/10/22 09:46:33;;;;;;;0.00;0.00;;;;;;;12.38;100.00;100477.91;5113628;28;20505;-42
2023/10/22 09:49:07;;;;;;;0.00;0.00;;;;;;;12.61;100.00;100482.09;5111017;28;20024;-40
2023/10/22 09:51:36;;;;;;;0.00;0.00;;;;;;;12.76;100.00;100469.25;5109205;27;20468;-40
2023/10/22 09:54:06;;;;;;;0.00;0.00;;;;;;;13.17;100.00;100460.16;5111899;28;20045;-41
2023/10/22 09:56:33;;;;;;;0.00;0.00;;;;;;;13.28;100.00;100454.16;5111133;28;20110;-41
2023/10/22 09:59:03;;;;;;;0.00;0.00;;;;;;;13.38;100.00;100451.03;5113653;28;20024;-41
2023/10/22 10:01:32;;;;;;;0.00;0.00;;;;;;;13.46;100.00;100449.97;5112539;28;20455;-39
2023/10/22 10:03:59;;;;;;;0.00;0.00;;;;;;;13.49;100.00;100444.16;5112706;28;20043;-40
2023/10/22 10:06:25;;;;;;;0.00;0.00;;;;;;;13.54;100.00;100455.16;5112416;28;20035;-41
2023/10/22 10:08:51;;;;;;;0.00;0.00;;;;;;;13.54;100.00;100450.59;5112384;28;20386;-40
2023/10/22 10:11:17;;;;;;;0.00;0.00;;;;;;;13.59;100.00;100463.47;5113466;28;20031;-41
2023/10/22 10:13:43;;;;;;;0.00;0.00;;;;;;;13.56;100.00;100456.63;5112414;28;20036;-40
2023/10/22 10:16:08;;;;;;;0.00;0.00;;;;;;;13.58;100.00;100469.91;5112257;28;20316;-39
2023/10/22 10:18:58;;;;;;;0.00;0.00;;;;;;;13.57;100.00;100484.47;5113446;28;20024;-40
2023/10/22 10:21:36;;;;;;;0.00;0.00;;;;;;;13.58;100.00;100478.03;5116202;28;20028;-41
2023/10/22 10:24:20;;;;;;;;;;;;;;;13.64;100.00;100482.59;5115250;28;20028;-42
2023/10/22 10:26:50;;;;;;;0.00;0.00;;;;;;;13.58;100.00;100488.84;5112837;28;20025;-41
2023/10/22 10:29:27;;;;;;;0.00;0.00;;;;;;;13.66;100.00;100483.19;5101832;28;20089;-41
2023/10/22 10:31:54;;;;;;;0.00;0.00;;;;;;;13.75;100.00;100491.94;5107966;28;20027;-40
2023/10/22 10:34:39;;;;;;;0.00;0.00;;;;;;;13.55;100.00;100495.50;5112127;28;20031;-41
2023/10/22 10:37:13;;;;;;;0.00;0.00;;;;;;;13.43;100.00;100502.59;5106305;28;20070;-40
2023/10/22 10:39:42;;;;;;;0.00;0.00;;;;;;;13.34;100.00;100507.34;5111160;28;20027;-40
2023/10/22 10:42:09;;;;;;;0.00;0.00;;;;;;;13.20;100.00;100505.69;5101407;28;20524;-40
2023/10/22 10:45:03;;;;;;;0.00;0.00;;;;;;;13.10;100.00;100516.88;5110493;28;20381;-40
2023/10/22 10:47:41;;;;;;;0.00;0.00;;;;;;;13.10;100.00;100516.06;5111517;28;20051;-40
2023/10/22 10:50:12;;;;;;;0.00;0.00;;;;;;;13.24;100.00;100515.00;5111517;28;20031;-39
2023/10/22 10:52:38;;;;;;;0.00;0.00;;;;;;;13.31;100.00;100521.28;5109720;27;20244;-40
2023/10/22 10:55:27;;;;;;;0.00;0.00;;;;;;;13.37;100.00;100514.22;5093321;28;20027;-40
2023/10/22 10:57:53;;;;;;;0.00;0.00;;;;;;;13.42;100.00;100516.31;5114859;28;20039;-41
2023/10/22 11:00:21;;;;;;;0.00;0.00;;;;;;;13.37;100.00;100515.03;5112242;28;20047;-41
2023/10/22 11:02:51;;;;;;;0.00;0.00;;;;;;;13.56;100.00;100517.94;5114842;27;20070;-40
2023/10/22 11:05:28;;;;;;;0.00;0.00;;;;;;;13.57;100.00;100508.81;5097123;28;20034;-41
2023/10/22 11:07:55;;;;;;;0.00;0.00;;;;;;;13.65;100.00;100511.28;5110027;28;20039;-41
2023/10/22 11:10:20;;;;;;;0.00;0.00;;;;;;;13.79;100.00;100515.63;5095535;28;20513;-40
2023/10/22 11:12:45;;;;;;;0.00;0.00;;;;;;;14.06;100.00;100504.75;5113865;28;20116;-41
2023/10/22 11:15:12;;;;;;;0.00;0.00;;;;;;;14.00;100.00;100502.88;5114569;28;20048;-41
2023/10/22 11:17:38;;;;;;;0.00;0.00;;;;;;;13.93;100.00;100504.78;5116572;28;20035;-39
2023/10/22 11:20:05;;;;;;;0.00;0.00;;;;;;;14.04;100.00;100509.56;5116127;28;20089;-41